Airfield :
LOGIN :

Register | Disclaimer

   EN    FR    IT 

 










Legend :    VFR   Marginal VFR   IFR   Intensive IFR   Very Intensive IFR
Visi :
Ceiling :
>= 8 km
>= 3000ft
5 to 8 km
1000 to 3000 ft
1500m to 5 km
500 to 1000 ft
800 to 1500m
200 to 500 ft
< 800m
< 200 ft
Symbols :   Thunderstorms  Fog  Heavy snow  Heavy precipitations  Wind > 20 kt
SIGMETs :     Misc.  Thunderstorms  Icing  Turbulence  Mountain Waves  Volcanic Ashes






- Airport Elevation : 1000 ft
- IATA code : PEV


LHPP - Pécs Pogany

CURRENT METAR :
  • 021615Z AUTO 32008KT 290V350 CAVOK 29/15 Q1020

EXPIRED METARs :
  • 021545Z AUTO 33009KT CAVOK 29/15 Q1020
  • 021515Z AUTO 33008KT 290V010 CAVOK 29/15 Q1020
  • 021445Z AUTO 33007KT 290V020 CAVOK 29/14 Q1020
  • 020245Z AUTO 29004KT 240V340 CAVOK 22/13 Q1018
  • 021415Z AUTO 35005KT 290V070 CAVOK 29/15 Q1020

TAF TAF LHPP
Valid from the 02 at 15:00 until the 03 at 00:00 UTC


021415Z 0215/0224 34010KT CAVOK
BECMG 0218/0221 VRB03KT



MET'MAP, your aeronautical weather chart ! - Copyright ORBIFLY December 2007 - Disclaimer

ORBIFLY MET'MAP TEAM :

Programming & Development : Alexandra Zaïnal
Original concept : Baudouin d'Aumeries
Technical & hardware support : Manuel Goepfert
Assistance : Marc-Olivier Méhu




SOURCES & CREDITS :

   NOAA